Time;durP1;ratioP1;P1;durP2;ratioP2;P2;SDS_P1;SDS_P2;PMS_P1;PMS_P2;Temp;Humidity;BMP_temperature;BMP_pressure;BME280_temperature;BME280_humidity;BME280_pressure;Samples;Min_cycle;Max_cycle;Signal;HPM_P1;HPM_P2
2024/04/09 00:03:31;;;;;;;5.20;2.90;;;;;;;14.76;64.55;98434.46;226782;1273;22570;-78
2024/04/09 00:08:35;;;;;;;5.70;3.10;;;;;;;14.74;64.45;98428.38;226758;1273;22532;-79
2024/04/09 00:13:37;;;;;;;6.80;3.30;;;;;;;14.71;64.72;98426.53;226895;1273;22535;-79
2024/04/09 00:18:39;;;;;;;5.20;3.00;;;;;;;14.70;64.80;98426.70;226764;1269;22560;-79
2024/04/09 00:23:41;;;;;;;11.40;3.40;;;;;;;14.70;64.75;98423.23;226742;1273;22531;-79
2024/04/09 00:28:43;;;;;;;4.30;3.30;;;;;;;14.68;64.71;98421.56;226866;1273;22541;-79
2024/04/09 00:33:46;;;;;;;5.20;3.00;;;;;;;14.65;64.77;98423.67;226736;1273;22574;-79
2024/04/09 00:38:48;;;;;;;7.00;2.70;;;;;;;14.61;64.68;98419.34;226884;1272;22573;-78
2024/04/09 00:43:51;;;;;;;4.80;3.20;;;;;;;14.56;64.64;98417.59;226847;1272;22580;-78
2024/04/09 00:48:53;;;;;;;7.10;3.60;;;;;;;14.51;64.92;98415.38;226745;1272;22628;-78
2024/04/09 00:53:55;;;;;;;6.10;3.50;;;;;;;14.44;64.80;98421.29;226912;1273;22542;-78
2024/04/09 00:58:57;;;;;;;7.30;3.40;;;;;;;14.39;65.12;98421.87;226934;1273;22547;-79
2024/04/09 01:03:59;;;;;;;9.30;3.60;;;;;;;14.33;65.17;98423.10;226853;1272;24225;-78
2024/04/09 01:09:03;;;;;;;7.00;3.40;;;;;;;14.27;65.39;98421.77;226885;1272;22555;-79
2024/04/09 01:14:05;;;;;;;7.40;3.30;;;;;;;14.23;65.37;98415.07;226771;1272;22523;-77
2024/04/09 01:19:08;;;;;;;7.90;3.60;;;;;;;14.23;65.45;98412.55;226691;1273;211697;-78
2024/04/09 01:24:10;;;;;;;7.70;3.00;;;;;;;14.22;65.63;98409.48;226702;1273;22574;-78
2024/04/09 01:29:14;;;;;;;5.80;3.10;;;;;;;14.19;65.43;98411.23;226740;1272;22534;-78
2024/04/09 01:34:16;;;;;;;7.70;3.20;;;;;;;14.16;65.31;98411.91;226906;1272;22543;-78
2024/04/09 01:39:18;;;;;;;5.50;3.10;;;;;;;14.12;65.53;98413.98;226884;1273;22519;-78
2024/04/09 01:44:20;;;;;;;5.30;3.20;;;;;;;14.06;65.66;98413.11;226899;1273;22531;-77
2024/04/09 01:49:23;;;;;;;3.90;2.70;;;;;;;13.99;65.66;98422.77;226840;1273;24266;-78
2024/04/09 01:54:24;;;;;;;5.20;3.20;;;;;;;13.86;65.81;98422.31;226868;1273;22527;-79
2024/04/09 01:59:30;;;;;;;3.90;3.00;;;;;;;13.71;66.27;98422.69;226834;1273;22535;-79
2024/04/09 02:04:33;;;;;;;5.20;3.20;;;;;;;13.56;66.44;98418.97;226829;1273;22544;-78
2024/04/09 02:09:35;;;;;;;5.30;3.50;;;;;;;13.44;66.62;98419.10;226806;1272;22581;-78
2024/04/09 02:14:38;;;;;;;5.90;3.40;;;;;;;13.35;66.92;98412.10;226642;1273;22492;-78
2024/04/09 02:19:40;;;;;;;4.60;2.90;;;;;;;13.27;66.84;98416.07;226851;1273;23309;-78
2024/04/09 02:24:42;;;;;;;4.30;3.20;;;;;;;13.22;67.01;98411.16;226804;1273;22556;-78
2024/04/09 02:29:43;;;;;;;5.80;3.40;;;;;;;13.21;67.36;98407.12;226881;1272;22531;-79
2024/04/09 02:34:45;;;;;;;7.10;3.50;;;;;;;13.23;67.14;98406.70;226766;1273;22548;-78
2024/04/09 02:39:47;;;;;;;4.20;2.80;;;;;;;13.25;67.18;98411.70;226815;1273;22570;-77
2024/04/09 02:44:49;;;;;;;7.20;3.20;;;;;;;13.25;67.53;98410.48;226770;1273;22535;-78
2024/04/09 02:49:52;;;;;;;5.60;3.40;;;;;;;13.25;67.43;98407.39;226808;1273;22662;-78
2024/04/09 02:54:54;;;;;;;5.10;2.70;;;;;;;13.27;67.33;98405.73;226922;1273;22547;-78
2024/04/09 02:59:56;;;;;;;5.00;2.70;;;;;;;13.28;67.36;98405.95;226905;1273;22702;-78
2024/04/09 03:04:58;;;;;;;4.60;2.40;;;;;;;13.31;67.23;98402.23;226929;1272;24213;-77
2024/04/09 03:10:00;;;;;;;4.00;1.90;;;;;;;13.32;67.24;98398.95;226878;1273;25384;-77
2024/04/09 03:15:02;;;;;;;6.10;1.80;;;;;;;13.34;67.10;98402.37;226937;1273;22533;-78
2024/04/09 03:20:05;;;;;;;4.40;2.20;;;;;;;13.37;66.73;98404.90;226914;1272;22535;-78
2024/04/09 03:25:07;;;;;;;3.40;1.90;;;;;;;13.42;66.59;98405.15;226798;1267;22532;-78
2024/04/09 03:30:09;;;;;;;2.70;2.10;;;;;;;13.47;66.76;98408.02;226832;1273;25319;-78
2024/04/09 03:35:11;;;;;;;4.60;2.70;;;;;;;13.48;66.55;98411.48;226933;1273;22542;-77
2024/04/09 03:40:13;;;;;;;4.30;2.40;;;;;;;13.46;66.69;98404.89;226857;1273;22546;-78
2024/04/09 03:45:16;;;;;;;5.10;2.40;;;;;;;13.43;66.69;98402.13;226893;1273;22564;-78
2024/04/09 03:50:17;;;;;;;5.90;2.20;;;;;;;13.41;66.76;98407.48;226805;1271;22554;-78
2024/04/09 03:55:19;;;;;;;4.50;2.30;;;;;;;13.43;66.73;98404.30;226900;1273;22622;-78
2024/04/09 04:00:22;;;;;;;7.00;2.70;;;;;;;13.46;66.48;98399.98;226795;1273;22516;-78
2024/04/09 04:05:25;;;;;;;4.70;2.50;;;;;;;13.46;66.47;98390.39;226770;1273;22530;-78
2024/04/09 04:10:26;;;;;;;4.60;3.20;;;;;;;13.41;66.57;98387.23;226961;1273;22546;-78
2024/04/09 04:15:28;;;;;;;6.00;3.10;;;;;;;13.34;66.76;98381.50;226863;1273;22619;-78
2024/04/09 04:20:30;;;;;;;8.90;3.20;;;;;;;13.31;67.06;98383.64;226943;1272;22569;-78
2024/04/09 04:25:33;;;;;;;4.50;3.10;;;;;;;13.32;66.87;98386.00;226859;1273;22569;-78
2024/04/09 04:30:35;;;;;;;6.80;3.40;;;;;;;13.38;67.18;98384.98;226952;1273;22542;-78
2024/04/09 04:35:37;;;;;;;6.10;3.60;;;;;;;13.49;67.16;98386.23;226863;1273;22522;-78
2024/04/09 04:40:39;;;;;;;6.00;3.80;;;;;;;13.62;67.14;98382.62;226930;1272;22531;-78
2024/04/09 04:45:41;;;;;;;9.50;3.70;;;;;;;13.71;67.05;98384.70;226911;1273;22539;-78
2024/04/09 04:50:46;;;;;;;9.40;3.50;;;;;;;13.80;66.79;98391.52;226772;1267;22533;-78
2024/04/09 04:55:51;;;;;;;5.60;3.30;;;;;;;13.88;66.90;98390.73;226835;1273;22557;-78
2024/04/09 05:00:53;;;;;;;7.10;3.70;;;;;;;13.98;66.74;98387.68;226951;1273;22556;-78
2024/04/09 05:06:04;;;;;;;6.40;3.30;;;;;;;14.05;66.82;98388.68;226764;1270;22591;-79
2024/04/09 05:11:10;;;;;;;5.90;2.80;;;;;;;14.07;66.73;98390.27;226900;1272;22590;-78
2024/04/09 05:16:12;;;;;;;4.20;2.60;;;;;;;14.09;66.66;98386.96;226725;1269;22535;-78
2024/04/09 05:21:14;;;;;;;5.10;2.90;;;;;;;14.13;66.79;98385.64;226855;1270;22539;-78
2024/04/09 05:26:17;;;;;;;4.10;2.90;;;;;;;14.20;66.81;98380.69;226896;1267;25317;-79
2024/04/09 05:31:19;;;;;;;6.40;2.90;;;;;;;14.28;66.72;98380.59;226847;1273;24229;-78
2024/04/09 05:36:21;;;;;;;6.60;3.00;;;;;;;14.37;66.77;98382.95;226757;1267;25397;-79
2024/04/09 05:41:23;;;;;;;8.20;3.40;;;;;;;14.49;66.67;98381.77;227235;1269;24253;-79
2024/04/09 05:46:25;;;;;;;7.00;3.20;;;;;;;14.66;66.85;98383.05;227192;1272;22603;-79
2024/04/09 05:51:27;;;;;;;6.60;3.30;;;;;;;14.82;66.90;98377.10;227118;1267;23654;-79
2024/04/09 05:56:29;;;;;;;10.40;3.40;;;;;;;15.00;66.87;98380.30;226950;1266;23076;-80
2024/04/09 06:01:31;;;;;;;10.30;4.10;;;;;;;15.18;66.91;98385.89;226213;1251;22546;-79
2024/04/09 06:06:34;;;;;;;7.70;4.10;;;;;;;15.36;66.87;98383.30;226289;1249;22542;-80
2024/04/09 06:11:37;;;;;;;9.50;3.90;;;;;;;15.52;67.08;98379.88;225987;1250;23223;-79
2024/04/09 06:16:39;;;;;;;12.00;4.00;;;;;;;15.72;67.17;98371.42;225971;1250;22591;-79
2024/04/09 06:21:41;;;;;;;9.30;2.80;;;;;;;15.94;67.22;98365.22;226608;1251;22564;-81
2024/04/09 06:26:43;;;;;;;8.00;2.40;;;;;;;16.21;66.82;98366.98;226710;1258;24271;-77
2024/04/09 06:31:45;;;;;;;12.90;2.40;;;;;;;16.50;66.00;98361.03;226996;1257;22546;-77
2024/04/09 06:36:48;;;;;;;8.10;2.50;;;;;;;16.80;65.25;98357.32;226932;1265;24328;-79
2024/04/09 06:41:50;;;;;;;5.30;2.60;;;;;;;17.13;64.56;98358.45;226763;1257;22577;-78
2024/04/09 06:46:52;;;;;;;5.60;2.20;;;;;;;17.47;63.91;98354.58;226893;1257;22531;-80
2024/04/09 06:51:54;;;;;;;6.50;2.10;;;;;;;17.76;63.15;98354.75;226836;1254;22532;-78
2024/04/09 06:56:56;;;;;;;8.50;3.20;;;;;;;18.03;62.25;98351.67;227103;1258;22565;-80
2024/04/09 07:01:58;;;;;;;4.10;1.80;;;;;;;18.30;61.52;98349.04;227006;1251;25539;-78
2024/04/09 07:07:00;;;;;;;7.10;1.90;;;;;;;18.55;60.97;98344.95;226769;1251;22548;-71
2024/04/09 07:12:02;;;;;;;5.70;1.50;;;;;;;18.80;60.34;98345.58;226754;1264;22612;-72
2024/04/09 07:17:05;;;;;;;4.40;1.80;;;;;;;19.02;59.82;98348.16;226918;1270;22526;-73
2024/04/09 07:22:07;;;;;;;9.20;1.90;;;;;;;19.23;59.54;98340.70;226708;1250;22583;-72
2024/04/09 07:27:11;;;;;;;4.00;2.10;;;;;;;19.44;58.70;98333.39;226720;1258;22538;-72
2024/04/09 07:32:13;;;;;;;6.70;2.00;;;;;;;19.66;58.12;98326.77;226700;1261;22519;-73
2024/04/09 07:37:15;;;;;;;6.90;1.70;;;;;;;19.83;57.70;98325.75;226663;1251;22634;-72
2024/04/09 07:42:17;;;;;;;5.20;2.50;;;;;;;20.02;57.23;98326.55;226577;1250;23047;-72
2024/04/09 07:47:20;;;;;;;5.90;1.80;;;;;;;20.22;56.82;98322.53;226455;1265;22559;-71
2024/04/09 07:52:24;;;;;;;3.10;1.90;;;;;;;20.42;55.87;98323.60;226281;1257;22553;-72
2024/04/09 07:57:26;;;;;;;4.40;1.90;;;;;;;20.61;55.43;98326.73;226143;1264;22593;-73
2024/04/09 08:02:27;;;;;;;5.10;1.90;;;;;;;20.80;54.79;98328.73;226111;1250;23126;-73
2024/04/09 08:07:29;;;;;;;5.20;2.00;;;;;;;21.00;54.74;98329.90;226194;1269;22634;-73
2024/04/09 08:12:31;;;;;;;7.40;2.70;;;;;;;21.18;54.36;98327.08;226332;1266;22540;-74
2024/04/09 08:17:36;;;;;;;4.50;2.40;;;;;;;21.36;54.22;98326.57;226445;1251;22561;-75
2024/04/09 08:22:38;;;;;;;4.00;1.80;;;;;;;21.56;54.26;98326.09;226435;1254;22604;-75
2024/04/09 08:27:41;;;;;;;2.30;1.50;;;;;;;21.78;53.70;98318.63;226512;1250;22589;-74
2024/04/09 08:32:45;;;;;;;4.10;1.70;;;;;;;21.98;52.18;98313.11;226442;1253;22545;-74
2024/04/09 08:37:47;;;;;;;5.00;1.40;;;;;;;22.16;51.79;98305.10;227329;1251;22655;-74
2024/04/09 08:42:53;;;;;;;3.70;1.60;;;;;;;22.36;51.16;98304.54;226611;1250;24256;-78
2024/04/09 08:48:00;;;;;;;7.60;1.60;;;;;;;22.56;50.72;98298.58;226115;1257;22562;-75
2024/04/09 08:53:03;;;;;;;4.30;1.60;;;;;;;22.77;50.40;98300.54;226251;1259;24810;-74
2024/04/09 08:58:06;;;;;;;3.70;1.90;;;;;;;22.96;49.68;98296.33;226287;1260;22557;-74
2024/04/09 09:03:07;;;;;;;7.40;1.50;;;;;;;23.12;49.12;98299.12;226580;1269;22545;-73
2024/04/09 09:08:09;;;;;;;3.30;1.60;;;;;;;23.26;48.78;98298.27;226392;1250;22525;-73
2024/04/09 09:13:12;;;;;;;4.90;1.80;;;;;;;23.34;48.57;98293.65;226511;1260;22559;-74
2024/04/09 09:18:22;;;;;;;6.20;1.70;;;;;;;23.47;48.51;98292.36;226333;1256;22745;-72
2024/04/09 09:23:24;;;;;;;3.60;2.00;;;;;;;23.63;48.46;98292.67;226583;1257;22530;-72
2024/04/09 09:28:26;;;;;;;5.60;1.80;;;;;;;23.81;48.55;98283.33;226147;1256;22642;-72
2024/04/09 09:33:31;;;;;;;4.20;1.90;;;;;;;23.99;48.33;98283.71;226408;1250;22688;-75
2024/04/09 09:38:34;;;;;;;3.20;1.80;;;;;;;24.16;47.77;98275.11;226430;1253;22723;-73
2024/04/09 09:43:37;;;;;;;5.80;2.20;;;;;;;24.29;47.24;98259.24;226401;1257;23108;-74
2024/04/09 09:48:40;;;;;;;5.60;2.50;;;;;;;24.44;47.44;98253.55;226135;1260;22950;-72
2024/04/09 09:53:42;;;;;;;3.70;1.90;;;;;;;24.57;46.86;98254.17;226136;1250;26253;-72
2024/04/09 09:58:45;;;;;;;8.50;1.90;;;;;;;24.68;46.75;98247.05;226345;1251;22536;-73
2024/04/09 10:03:46;;;;;;;3.40;2.10;;;;;;;24.82;46.46;98247.00;226385;1253;24298;-74
2024/04/09 10:08:50;;;;;;;2.80;1.80;;;;;;;24.96;46.45;98245.88;226274;1253;22559;-73
2024/04/09 10:13:52;;;;;;;6.70;2.10;;;;;;;25.09;46.35;98245.95;226358;1260;22544;-73
2024/04/09 10:18:57;;;;;;;6.50;2.40;;;;;;;25.19;45.85;98250.45;226406;1266;23025;-73
2024/04/09 10:24:01;;;;;;;6.30;2.30;;;;;;;25.32;45.72;98242.91;226387;1250;22535;-72
2024/04/09 10:29:05;;;;;;;9.30;2.10;;;;;;;25.45;45.08;98238.68;227389;1266;23085;-72
2024/04/09 10:34:06;;;;;;;4.00;2.10;;;;;;;25.57;44.90;98238.52;226333;1260;22528;-73
2024/04/09 10:39:09;;;;;;;2.00;1.80;;;;;;;25.69;44.83;98233.34;226324;1267;22644;-77
2024/04/09 10:44:11;;;;;;;3.60;1.80;;;;;;;25.83;44.95;98222.70;226435;1260;22582;-77
2024/04/09 10:49:13;;;;;;;3.20;1.70;;;;;;;25.96;44.29;98215.07;226554;1266;22641;-71
2024/04/09 10:54:15;;;;;;;4.60;1.80;;;;;;;26.03;43.77;98208.42;226396;1253;22743;-72
2024/04/09 10:59:21;;;;;;;4.40;1.80;;;;;;;26.12;43.40;98200.55;226543;1251;22672;-73
2024/04/09 11:04:24;;;;;;;4.20;1.80;;;;;;;26.19;43.14;98194.59;226513;1249;24369;-73
2024/04/09 11:09:27;;;;;;;3.60;1.60;;;;;;;26.26;43.31;98192.02;226474;1256;22533;-73
2024/04/09 11:14:29;;;;;;;5.80;1.90;;;;;;;26.40;43.30;98189.40;226401;1266;22572;-73
2024/04/09 11:19:32;;;;;;;4.40;2.10;;;;;;;26.47;41.87;98187.01;226514;1249;22544;-73
2024/04/09 11:24:36;;;;;;;2.90;2.10;;;;;;;26.53;42.42;98185.31;226447;1253;22464;-73
2024/04/09 11:29:46;;;;;;;4.80;2.20;;;;;;;26.60;42.28;98180.25;226134;1250;22601;-73
2024/04/09 11:34:48;;;;;;;3.00;2.10;;;;;;;26.66;42.01;98176.27;226322;1251;22548;-72
2024/04/09 11:39:50;;;;;;;2.60;1.60;;;;;;;26.72;41.96;98179.05;226484;1260;22531;-72
2024/04/09 11:45:00;;;;;;;5.90;2.20;;;;;;;26.79;42.09;98165.28;226304;1269;22564;-70
2024/04/09 11:50:05;;;;;;;3.50;1.90;;;;;;;26.83;42.01;98157.54;226743;1250;23000;-70
2024/04/09 11:55:10;;;;;;;5.10;2.00;;;;;;;26.90;41.97;98155.67;226527;1265;22520;-70
2024/04/09 12:00:14;;;;;;;2.00;1.80;;;;;;;26.97;41.84;98146.52;226307;1253;26187;-71
2024/04/09 12:05:16;;;;;;;5.50;1.90;;;;;;;27.07;42.03;98132.88;226509;1267;26326;-72
2024/04/09 12:10:19;;;;;;;4.80;1.80;;;;;;;27.10;41.54;98124.16;226469;1257;22531;-74
2024/04/09 12:15:21;;;;;;;2.90;2.10;;;;;;;27.15;41.69;98119.81;226470;1270;22546;-76
2024/04/09 12:20:23;;;;;;;4.10;1.80;;;;;;;27.19;41.54;98112.57;226212;1263;22536;-73
2024/04/09 12:25:24;;;;;;;3.30;2.10;;;;;;;27.19;41.41;98111.42;226316;1264;22559;-71
2024/04/09 12:30:26;;;;;;;4.50;1.90;;;;;;;27.19;41.09;98098.25;226660;1260;22544;-71
2024/04/09 12:35:28;;;;;;;4.70;2.10;;;;;;;27.23;40.85;98091.44;226883;1255;22550;-70
2024/04/09 12:40:30;;;;;;;6.20;2.20;;;;;;;27.26;41.02;98086.67;226487;1254;22532;-73
2024/04/09 12:45:32;;;;;;;5.20;2.20;;;;;;;27.32;40.70;98083.84;226469;1250;22555;-73
2024/04/09 12:50:34;;;;;;;5.30;2.30;;;;;;;27.35;40.67;98079.00;226512;1251;22534;-71
2024/04/09 12:55:36;;;;;;;77.00;69.40;;;;;;;27.37;40.52;98078.27;226581;1253;23174;-72
2024/04/09 13:00:38;;;;;;;6.30;2.60;;;;;;;27.38;39.82;98078.41;226485;1269;22560;-76
2024/04/09 13:06:00;;;;;;;3.80;2.40;;;;;;;27.41;40.16;98080.84;226489;1260;22532;-71
2024/04/09 13:11:04;;;;;;;3.60;1.90;;;;;;;27.39;40.32;98077.45;226520;1250;22540;-72
2024/04/09 13:16:08;;;;;;;3.20;1.80;;;;;;;27.45;40.10;98077.33;226245;1260;359014;-72
2024/04/09 13:21:29;;;;;;;4.00;2.00;;;;;;;27.57;39.81;98074.20;226511;1270;22532;-71
2024/04/09 13:26:31;;;;;;;3.70;2.20;;;;;;;27.67;40.10;98075.41;226463;1272;25450;-73
2024/04/09 13:31:33;;;;;;;3.60;2.20;;;;;;;27.79;40.21;98073.52;226585;1267;22582;-72
2024/04/09 13:36:35;;;;;;;3.90;2.10;;;;;;;27.93;40.26;98075.83;226670;1270;22560;-72
2024/04/09 13:41:40;;;;;;;4.10;2.10;;;;;;;28.11;39.84;98070.40;226664;1260;23704;-73
2024/04/09 13:46:42;;;;;;;4.50;1.80;;;;;;;28.31;40.04;98064.73;226523;1248;22602;-71
2024/04/09 13:51:45;;;;;;;5.50;2.20;;;;;;;28.51;39.33;98064.90;226734;1260;22629;-73
2024/04/09 13:56:47;;;;;;;3.30;2.00;;;;;;;28.72;39.25;98059.77;226650;1266;22638;-72
2024/04/09 14:01:51;;;;;;;5.50;2.30;;;;;;;28.89;39.47;98056.55;226504;1267;22574;-72
2024/04/09 14:06:53;;;;;;;3.90;2.20;;;;;;;29.01;39.14;98055.92;226646;1269;22528;-72
2024/04/09 14:11:54;;;;;;;5.60;2.10;;;;;;;29.01;38.17;98051.06;226732;1270;22567;-72
2024/04/09 14:16:59;;;;;;;5.20;2.20;;;;;;;29.02;38.73;98044.73;226810;1272;22582;-72
2024/04/09 14:22:02;;;;;;;6.90;2.30;;;;;;;29.01;38.10;98041.20;226839;1263;22550;-71
2024/04/09 14:27:04;;;;;;;4.60;2.20;;;;;;;28.85;36.63;98045.26;227070;1270;22569;-71
2024/04/09 14:32:06;;;;;;;4.90;2.30;;;;;;;28.63;36.96;98044.30;227241;1270;22543;-72
2024/04/09 14:37:08;;;;;;;4.10;2.00;;;;;;;28.47;37.18;98047.20;227246;1269;22534;-71
2024/04/09 14:42:10;;;;;;;4.00;2.00;;;;;;;28.43;37.22;98047.49;227343;1269;22547;-72
2024/04/09 14:47:12;;;;;;;3.80;1.90;;;;;;;28.37;36.93;98044.80;227293;1269;22528;-72
2024/04/09 14:52:14;;;;;;;6.60;2.10;;;;;;;28.28;36.89;98042.11;227354;1272;22528;-72
2024/04/09 14:57:15;;;;;;;4.10;2.10;;;;;;;28.20;36.84;98044.52;227345;1269;22548;-72
2024/04/09 15:02:17;;;;;;;3.60;2.00;;;;;;;28.09;37.00;98044.16;227131;1260;24225;-72
2024/04/09 15:07:20;;;;;;;5.40;2.50;;;;;;;27.99;37.04;98042.73;227043;1270;25350;-72
2024/04/09 15:12:22;;;;;;;6.40;2.20;;;;;;;27.80;36.91;98043.63;227070;1269;22549;-72
2024/04/09 15:17:25;;;;;;;6.50;2.30;;;;;;;27.59;37.45;98045.98;227206;1268;22585;-72
2024/04/09 15:22:27;;;;;;;5.60;2.00;;;;;;;27.38;37.23;98054.27;227342;1269;22577;-72
2024/04/09 15:27:31;;;;;;;5.50;2.00;;;;;;;27.13;36.77;98059.96;227364;1269;22533;-72
2024/04/09 15:32:33;;;;;;;4.70;1.90;;;;;;;26.88;37.12;98056.23;227331;1267;24200;-72
2024/04/09 15:37:36;;;;;;;5.00;2.10;;;;;;;26.66;37.21;98060.41;227324;1269;22531;-72
2024/04/09 15:42:37;;;;;;;2.60;1.90;;;;;;;26.42;37.58;98065.20;227324;1272;22551;-72
2024/04/09 15:47:40;;;;;;;4.20;2.10;;;;;;;26.18;38.06;98071.89;227345;1270;24107;-72
2024/04/09 15:52:44;;;;;;;4.60;2.10;;;;;;;25.95;38.73;98077.27;227329;1270;24558;-72
2024/04/09 15:57:46;;;;;;;4.30;1.90;;;;;;;25.69;39.14;98084.34;227079;1272;22544;-71
2024/04/09 16:02:48;;;;;;;4.10;1.90;;;;;;;25.47;39.64;98083.41;227289;1261;22532;-71
2024/04/09 16:07:50;;;;;;;6.20;2.60;;;;;;;25.29;40.04;98085.04;227237;1267;22528;-71
2024/04/09 16:12:52;;;;;;;2.60;1.90;;;;;;;25.14;40.63;98086.25;227320;1272;22531;-71
2024/04/09 16:17:54;;;;;;;5.80;2.20;;;;;;;24.97;40.67;98087.90;227260;1272;22712;-71
2024/04/09 16:22:56;;;;;;;4.80;1.70;;;;;;;24.75;40.53;98091.61;227153;1272;25318;-72
2024/04/09 16:27:58;;;;;;;4.50;2.10;;;;;;;24.54;40.70;98102.35;227158;1272;24391;-71
2024/04/09 16:33:00;;;;;;;3.70;2.00;;;;;;;24.34;40.66;98104.94;227262;1266;22625;-71
2024/04/09 16:38:03;;;;;;;5.20;2.30;;;;;;;24.14;41.11;98110.92;227314;1266;22561;-72
2024/04/09 16:43:05;;;;;;;4.90;2.00;;;;;;;23.94;41.52;98117.10;227138;1272;25479;-71
2024/04/09 16:48:07;;;;;;;3.00;1.50;;;;;;;23.75;42.01;98117.08;227380;1270;22555;-72
2024/04/09 16:53:09;;;;;;;1.90;1.50;;;;;;;23.57;42.32;98120.86;227200;1266;22618;-72
2024/04/09 16:58:11;;;;;;;3.80;2.10;;;;;;;23.42;42.54;98124.84;227312;1269;22557;-72
2024/04/09 17:03:14;;;;;;;5.00;2.10;;;;;;;23.27;43.00;98133.14;227270;1272;22529;-72
2024/04/09 17:08:16;;;;;;;4.50;2.00;;;;;;;23.11;43.36;98146.20;227330;1268;25263;-72
2024/04/09 17:13:19;;;;;;;4.80;2.10;;;;;;;22.94;43.75;98149.27;227322;1268;22546;-73
2024/04/09 17:18:21;;;;;;;4.10;1.90;;;;;;;22.76;44.09;98154.80;227322;1270;22539;-72
2024/04/09 17:23:24;;;;;;;2.70;1.90;;;;;;;22.55;44.43;98156.03;227323;1269;22534;-72
2024/04/09 17:28:28;;;;;;;5.70;2.00;;;;;;;22.35;44.73;98162.79;227326;1268;22592;-72
2024/04/09 17:33:29;;;;;;;4.20;2.20;;;;;;;22.16;45.17;98171.85;227338;1267;22523;-71
2024/04/09 17:38:32;;;;;;;4.70;2.30;;;;;;;21.98;45.48;98181.92;227389;1270;22651;-71
2024/04/09 17:43:35;;;;;;;5.70;2.70;;;;;;;21.79;45.93;98185.87;227286;1269;22539;-72
2024/04/09 17:48:37;;;;;;;6.90;2.60;;;;;;;21.57;46.15;98195.73;227279;1270;22536;-72
2024/04/09 17:53:39;;;;;;;7.20;4.10;;;;;;;21.36;46.47;98199.45;227310;1268;22574;-71
2024/04/09 17:58:41;;;;;;;9.00;3.80;;;;;;;21.19;47.01;98205.84;227161;1271;22546;-71
2024/04/09 18:03:44;;;;;;;5.00;3.60;;;;;;;21.01;47.37;98212.94;227120;1272;22528;-71
2024/04/09 18:08:46;;;;;;;5.00;2.90;;;;;;;20.84;47.64;98226.05;227301;1272;22544;-72
2024/04/09 18:13:48;;;;;;;4.30;1.80;;;;;;;20.65;47.91;98226.30;227340;1269;22547;-72
2024/04/09 18:18:52;;;;;;;8.10;2.20;;;;;;;20.50;48.34;98227.93;227363;1272;22539;-71
2024/04/09 18:23:54;;;;;;;3.40;2.20;;;;;;;20.34;48.72;98233.02;227307;1269;22638;-71
2024/04/09 18:28:58;;;;;;;6.10;2.50;;;;;;;20.15;49.10;98236.27;227166;1272;22642;-71
2024/04/09 18:33:59;;;;;;;5.90;2.60;;;;;;;19.94;49.40;98241.08;227336;1272;22549;-72
2024/04/09 18:39:05;;;;;;;6.30;2.70;;;;;;;19.80;49.94;98242.35;227363;1253;22554;-72
2024/04/09 18:44:08;;;;;;;7.40;2.50;;;;;;;19.68;50.35;98239.51;227275;1270;24218;-71
2024/04/09 18:49:10;;;;;;;4.50;2.60;;;;;;;19.54;50.61;98243.54;227354;1272;25472;-74
2024/04/09 18:54:14;;;;;;;6.40;3.10;;;;;;;19.41;50.75;98248.80;227240;1272;22774;-76
2024/04/09 18:59:16;;;;;;;8.70;2.80;;;;;;;19.32;51.05;98251.45;227160;1272;22580;-77
2024/04/09 19:04:18;;;;;;;5.40;2.80;;;;;;;19.23;51.31;98256.80;227368;1272;22542;-77
2024/04/09 19:09:20;;;;;;;6.70;2.80;;;;;;;19.09;51.57;98259.05;227224;1272;22553;-75
2024/04/09 19:14:22;;;;;;;6.00;3.00;;;;;;;18.93;51.92;98264.28;227343;1270;22563;-76
2024/04/09 19:19:24;;;;;;;7.40;2.90;;;;;;;18.78;52.41;98262.05;227181;1266;22620;-75
2024/04/09 19:24:26;;;;;;;5.60;3.40;;;;;;;18.61;52.75;98266.48;227219;1272;22553;-76
2024/04/09 19:29:29;;;;;;;6.40;3.20;;;;;;;18.46;53.07;98275.98;227166;1272;22532;-76
2024/04/09 19:34:32;;;;;;;8.30;2.90;;;;;;;18.31;53.34;98280.09;227169;1272;22530;-76
2024/04/09 19:39:34;;;;;;;8.00;5.50;;;;;;;18.17;53.88;98282.77;227255;1270;22541;-76
2024/04/09 19:44:36;;;;;;;20.00;11.20;;;;;;;18.02;54.14;98285.14;227299;1270;22539;-76
2024/04/09 19:49:43;;;;;;;33.40;18.00;;;;;;;17.89;54.33;98293.85;227300;1269;22526;-74
2024/04/09 19:54:44;;;;;;;34.50;21.90;;;;;;;17.77;54.66;98294.64;227291;1272;23427;-74
2024/04/09 19:59:48;;;;;;;71.60;43.40;;;;;;;17.63;55.10;98295.92;227156;1272;22604;-75
2024/04/09 20:04:53;;;;;;;67.10;41.40;;;;;;;17.48;55.57;98295.68;227315;1270;22563;-76
2024/04/09 20:09:55;;;;;;;45.80;29.20;;;;;;;17.35;55.86;98300.28;227280;1272;22643;-76
2024/04/09 20:14:57;;;;;;;38.60;22.70;;;;;;;17.22;56.22;98303.13;227092;1253;22558;-75
2024/04/09 20:19:59;;;;;;;26.00;14.40;;;;;;;17.10;56.55;98311.46;227387;1270;23599;-76
2024/04/09 20:25:02;;;;;;;16.70;10.40;;;;;;;16.99;57.02;98318.97;227370;1272;22564;-76
2024/04/09 20:30:04;;;;;;;15.90;9.20;;;;;;;16.86;57.29;98322.53;227341;1272;22543;-76
2024/04/09 20:35:08;;;;;;;13.60;8.40;;;;;;;16.74;57.64;98329.41;227323;1269;24496;-76
2024/04/09 20:40:10;;;;;;;12.10;7.40;;;;;;;16.62;57.87;98335.08;227306;1269;22535;-76
2024/04/09 20:45:12;;;;;;;10.60;7.00;;;;;;;16.49;58.23;98340.90;227313;1269;22535;-75
2024/04/09 20:50:14;;;;;;;13.10;7.70;;;;;;;16.37;58.65;98346.84;227303;1270;23280;-76
2024/04/09 20:55:17;;;;;;;14.10;8.50;;;;;;;16.27;59.34;98353.88;227317;1272;22535;-75
2024/04/09 21:00:19;;;;;;;16.50;9.00;;;;;;;16.16;59.95;98355.46;227299;1272;22580;-75
2024/04/09 21:05:21;;;;;;;13.90;9.50;;;;;;;16.07;60.32;98359.95;227313;1272;22533;-75
2024/04/09 21:10:23;;;;;;;15.40;9.50;;;;;;;15.98;60.76;98363.97;227279;1272;22530;-75
2024/04/09 21:15:25;;;;;;;14.10;8.40;;;;;;;15.89;61.01;98365.56;227313;1250;22550;-74
2024/04/09 21:20:26;;;;;;;17.30;8.60;;;;;;;15.81;61.41;98374.72;227108;1272;22618;-77
2024/04/09 21:25:30;;;;;;;16.20;7.90;;;;;;;15.74;61.91;98377.70;227218;1272;22532;-75
2024/04/09 21:30:33;;;;;;;12.90;8.40;;;;;;;15.69;62.08;98381.69;227343;1263;22535;-76
2024/04/09 21:35:36;;;;;;;16.90;9.30;;;;;;;15.64;62.11;98386.98;227349;1269;22522;-76
2024/04/09 21:40:38;;;;;;;16.70;9.20;;;;;;;15.57;62.52;98395.20;227133;1272;22566;-76
2024/04/09 21:45:39;;;;;;;17.50;9.20;;;;;;;15.51;62.85;98400.25;227376;1272;22528;-76
2024/04/09 21:50:41;;;;;;;16.00;8.10;;;;;;;15.45;63.33;98406.90;227222;1271;22603;-75
2024/04/09 21:55:43;;;;;;;13.60;8.60;;;;;;;15.39;63.45;98410.39;227055;1272;22555;-76
2024/04/09 22:00:51;;;;;;;17.90;9.80;;;;;;;15.35;63.79;98410.37;227163;1272;25514;-75
2024/04/09 22:05:53;;;;;;;16.10;9.10;;;;;;;15.30;63.99;98411.67;227306;1270;22645;-76
2024/04/09 22:10:55;;;;;;;19.30;9.60;;;;;;;15.25;64.44;98418.27;227290;1272;23423;-76
2024/04/09 22:15:56;;;;;;;17.70;10.10;;;;;;;15.20;64.42;98422.27;227326;1270;25260;-75
2024/04/09 22:20:58;;;;;;;17.50;10.40;;;;;;;15.14;64.57;98422.91;227291;1270;22601;-75
2024/04/09 22:26:00;;;;;;;17.60;9.40;;;;;;;15.10;64.74;98422.25;227307;1269;22545;-76
2024/04/09 22:31:03;;;;;;;12.20;9.10;;;;;;;15.07;65.02;98423.64;227363;1260;22539;-76
2024/04/09 22:36:05;;;;;;;15.50;9.90;;;;;;;15.04;65.34;98435.16;227180;1272;22538;-76
2024/04/09 22:41:07;;;;;;;14.50;8.80;;;;;;;15.05;65.14;98443.80;227185;1272;22564;-75
2024/04/09 22:46:10;;;;;;;17.70;10.20;;;;;;;15.07;65.54;98458.87;227355;1272;22568;-76
2024/04/09 22:51:14;;;;;;;16.10;9.80;;;;;;;15.05;65.71;98466.42;227354;1270;22587;-75
2024/04/09 22:56:16;;;;;;;17.30;8.80;;;;;;;15.01;65.64;98466.79;227326;1272;22600;-75
2024/04/09 23:01:18;;;;;;;15.30;9.10;;;;;;;14.98;65.81;98470.49;227019;1270;22696;-76
2024/04/09 23:06:21;;;;;;;16.30;8.60;;;;;;;14.94;66.15;98472.80;226787;1273;22562;-74
2024/04/09 23:11:23;;;;;;;13.50;8.60;;;;;;;14.91;66.24;98482.32;226931;1272;22645;-75
2024/04/09 23:16:25;;;;;;;10.30;6.90;;;;;;;14.91;66.48;98482.94;226888;1272;23605;-75
2024/04/09 23:21:27;;;;;;;11.30;6.70;;;;;;;14.91;66.53;98482.69;227305;1270;24305;-74
2024/04/09 23:26:29;;;;;;;12.00;6.50;;;;;;;14.94;66.78;98481.64;227337;1269;22529;-74